sensor_id;sensor_type;location;lat;lon;timestamp;pressure;altitude;pressure_sealevel;temperature;humidity
42671;BME280;28283;55.426;37.756;2022-10-31T00:00:35;97749.56;;;-0.39;75.87
42671;BME280;28283;55.426;37.756;2022-10-31T00:05:36;97715.97;;;-0.53;76.36
42671;BME280;28283;55.426;37.756;2022-10-31T00:10:40;97720.78;;;-0.65;76.14
42671;BME280;28283;55.426;37.756;2022-10-31T00:15:41;97736.59;;;-0.48;75.40
42671;BME280;28283;55.426;37.756;2022-10-31T00:20:41;97743.50;;;-0.47;75.56
42671;BME280;28283;55.426;37.756;2022-10-31T00:25:42;97716.22;;;-0.31;74.81
42671;BME280;28283;55.426;37.756;2022-10-31T00:30:42;97681.69;;;-0.61;74.79
42671;BME280;28283;55.426;37.756;2022-10-31T00:35:49;97701.16;;;-0.23;73.75
42671;BME280;28283;55.426;37.756;2022-10-31T00:40:50;97674.53;;;-0.44;73.42
42671;BME280;28283;55.426;37.756;2022-10-31T00:45:51;97697.41;;;-0.28;74.02
42671;BME280;28283;55.426;37.756;2022-10-31T00:50:52;97665.44;;;-0.42;72.85
42671;BME280;28283;55.426;37.756;2022-10-31T00:55:52;97676.28;;;-0.28;73.04
42671;BME280;28283;55.426;37.756;2022-10-31T01:00:53;97686.66;;;-0.27;73.48
42671;BME280;28283;55.426;37.756;2022-10-31T01:06:02;97682.94;;;-0.49;73.71
42671;BME280;28283;55.426;37.756;2022-10-31T01:16:17;97686.25;;;-0.15;73.35
42671;BME280;28283;55.426;37.756;2022-10-31T01:21:23;97603.25;;;-0.44;73.03
42671;BME280;28283;55.426;37.756;2022-10-31T01:26:26;97696.22;;;-0.26;73.47
42671;BME280;28283;55.426;37.756;2022-10-31T01:31:30;97685.09;;;-0.13;72.93
42671;BME280;28283;55.426;37.756;2022-10-31T01:36:36;97675.53;;;-0.14;73.08
42671;BME280;28283;55.426;37.756;2022-10-31T01:41:40;97667.13;;;-0.17;72.88
42671;BME280;28283;55.426;37.756;2022-10-31T01:51:58;97641.97;;;-0.36;73.69
42671;BME280;28283;55.426;37.756;2022-10-31T01:57:02;97644.31;;;-0.42;74.28
42671;BME280;28283;55.426;37.756;2022-10-31T02:02:05;97679.25;;;-0.31;74.43
42671;BME280;28283;55.426;37.756;2022-10-31T02:07:13;97670.69;;;-0.33;74.50
42671;BME280;28283;55.426;37.756;2022-10-31T02:12:15;97687.63;;;-0.20;74.84
42671;BME280;28283;55.426;37.756;2022-10-31T02:17:16;97700.50;;;-0.25;75.91
42671;BME280;28283;55.426;37.756;2022-10-31T02:27:40;97692.44;;;-0.31;77.42
42671;BME280;28283;55.426;37.756;2022-10-31T02:33:10;97699.75;;;-0.42;77.90
42671;BME280;28283;55.426;37.756;2022-10-31T02:38:27;97711.50;;;-0.52;79.98
42671;BME280;28283;55.426;37.756;2022-10-31T02:43:44;97690.06;;;-0.49;81.24
42671;BME280;28283;55.426;37.756;2022-10-31T02:48:52;97692.44;;;-0.63;82.73
42671;BME280;28283;55.426;37.756;2022-10-31T02:53:53;97687.16;;;-0.63;83.35
42671;BME280;28283;55.426;37.756;2022-10-31T02:59:01;97699.06;;;-0.75;85.32
42671;BME280;28283;55.426;37.756;2022-10-31T03:19:47;97689.38;;;-0.99;88.53
42671;BME280;28283;55.426;37.756;2022-10-31T03:24:50;97625.84;;;-1.37;89.36
42671;BME280;28283;55.426;37.756;2022-10-31T03:29:57;97674.22;;;-0.97;90.00
42671;BME280;28283;55.426;37.756;2022-10-31T03:35:01;97683.81;;;-1.21;90.50
42671;BME280;28283;55.426;37.756;2022-10-31T03:40:06;97683.16;;;-1.14;91.21
42671;BME280;28283;55.426;37.756;2022-10-31T03:45:22;97700.94;;;-1.00;91.13
42671;BME280;28283;55.426;37.756;2022-10-31T03:50:29;97606.78;;;-1.56;90.90
42671;BME280;28283;55.426;37.756;2022-10-31T04:00:44;97702.59;;;-1.16;89.01
42671;BME280;28283;55.426;37.756;2022-10-31T04:05:48;97671.28;;;-1.02;87.56
42671;BME280;28283;55.426;37.756;2022-10-31T04:10:51;97671.97;;;-1.17;87.42
42671;BME280;28283;55.426;37.756;2022-10-31T04:15:54;97729.78;;;-0.99;88.93
42671;BME280;28283;55.426;37.756;2022-10-31T04:21:06;97703.72;;;-0.93;88.04
42671;BME280;28283;55.426;37.756;2022-10-31T04:26:10;97705.38;;;-1.01;88.11
42671;BME280;28283;55.426;37.756;2022-10-31T04:31:12;97716.94;;;-1.10;88.51
42671;BME280;28283;55.426;37.756;2022-10-31T04:36:13;97724.69;;;-1.00;87.53
42671;BME280;28283;55.426;37.756;2022-10-31T04:41:13;97737.69;;;-1.07;87.59
42671;BME280;28283;55.426;37.756;2022-10-31T04:46:14;97753.16;;;-0.96;88.10
42671;BME280;28283;55.426;37.756;2022-10-31T04:51:15;97743.78;;;-0.98;88.05
42671;BME280;28283;55.426;37.756;2022-10-31T04:56:16;97746.41;;;-0.82;87.79
42671;BME280;28283;55.426;37.756;2022-10-31T05:01:16;97760.78;;;-1.09;87.13
42671;BME280;28283;55.426;37.756;2022-10-31T05:06:17;97724.31;;;-0.97;87.39
42671;BME280;28283;55.426;37.756;2022-10-31T05:11:18;97779.50;;;-0.71;85.96
42671;BME280;28283;55.426;37.756;2022-10-31T05:16:18;97777.91;;;-0.97;86.06
42671;BME280;28283;55.426;37.756;2022-10-31T05:21:19;97785.31;;;-0.84;86.53
42671;BME280;28283;55.426;37.756;2022-10-31T05:26:20;97743.94;;;-0.91;85.83
42671;BME280;28283;55.426;37.756;2022-10-31T05:31:21;97794.19;;;-0.60;84.89
42671;BME280;28283;55.426;37.756;2022-10-31T05:36:22;97763.88;;;-0.97;85.36
42671;BME280;28283;55.426;37.756;2022-10-31T05:41:22;97814.34;;;-0.84;85.83
42671;BME280;28283;55.426;37.756;2022-10-31T05:46:23;97816.63;;;-0.97;86.72
42671;BME280;28283;55.426;37.756;2022-10-31T05:51:24;97780.22;;;-1.02;85.63
42671;BME280;28283;55.426;37.756;2022-10-31T05:56:24;97836.59;;;-0.70;84.88
42671;BME280;28283;55.426;37.756;2022-10-31T06:01:25;97836.41;;;-0.52;84.17
42671;BME280;28283;55.426;37.756;2022-10-31T06:06:26;97853.38;;;-0.54;84.43
42671;BME280;28283;55.426;37.756;2022-10-31T06:11:27;97871.81;;;-0.38;84.21
42671;BME280;28283;55.426;37.756;2022-10-31T06:16:27;97861.13;;;-0.53;84.47
42671;BME280;28283;55.426;37.756;2022-10-31T06:21:28;97857.44;;;-0.27;83.69
42671;BME280;28283;55.426;37.756;2022-10-31T06:26:29;97882.03;;;-0.18;83.68
42671;BME280;28283;55.426;37.756;2022-10-31T06:31:29;97906.47;;;-0.25;83.77
42671;BME280;28283;55.426;37.756;2022-10-31T06:36:30;97871.34;;;-0.33;83.43
42671;BME280;28283;55.426;37.756;2022-10-31T06:41:31;97912.41;;;-0.23;84.16
42671;BME280;28283;55.426;37.756;2022-10-31T06:46:31;97898.41;;;-0.31;84.11
42671;BME280;28283;55.426;37.756;2022-10-31T06:51:32;97928.22;;;-0.06;84.51
42671;BME280;28283;55.426;37.756;2022-10-31T06:56:33;97933.03;;;-0.26;84.54
42671;BME280;28283;55.426;37.756;2022-10-31T07:01:33;97964.06;;;-0.12;85.52
42671;BME280;28283;55.426;37.756;2022-10-31T07:06:34;97966.53;;;-0.10;86.79
42671;BME280;28283;55.426;37.756;2022-10-31T07:11:35;97947.22;;;-0.19;85.94
42671;BME280;28283;55.426;37.756;2022-10-31T07:16:36;97986.16;;;0.12;86.15
42671;BME280;28283;55.426;37.756;2022-10-31T07:21:36;97942.41;;;-0.07;85.46
42671;BME280;28283;55.426;37.756;2022-10-31T07:26:37;97960.09;;;-0.08;85.64
42671;BME280;28283;55.426;37.756;2022-10-31T07:31:38;98029.03;;;0.38;84.86
42671;BME280;28283;55.426;37.756;2022-10-31T07:36:39;98051.16;;;0.46;83.99
42671;BME280;28283;55.426;37.756;2022-10-31T07:41:39;98061.75;;;0.54;84.02
42671;BME280;28283;55.426;37.756;2022-10-31T07:46:40;98065.84;;;0.65;83.10
42671;BME280;28283;55.426;37.756;2022-10-31T07:51:41;98085.69;;;0.52;84.32
42671;BME280;28283;55.426;37.756;2022-10-31T07:56:42;98094.13;;;0.48;84.23
42671;BME280;28283;55.426;37.756;2022-10-31T08:01:42;98106.34;;;0.65;84.60
42671;BME280;28283;55.426;37.756;2022-10-31T08:06:43;98132.78;;;0.65;84.40
42671;BME280;28283;55.426;37.756;2022-10-31T08:11:44;98136.06;;;0.75;84.51
42671;BME280;28283;55.426;37.756;2022-10-31T08:16:45;98138.09;;;1.13;83.13
42671;BME280;28283;55.426;37.756;2022-10-31T08:21:45;98143.72;;;1.18;81.92
42671;BME280;28283;55.426;37.756;2022-10-31T08:26:46;98121.25;;;1.14;80.27
42671;BME280;28283;55.426;37.756;2022-10-31T08:31:47;98135.91;;;1.33;79.58
42671;BME280;28283;55.426;37.756;2022-10-31T08:36:48;98108.00;;;1.22;78.90
42671;BME280;28283;55.426;37.756;2022-10-31T08:41:49;98168.94;;;1.85;77.37
42671;BME280;28283;55.426;37.756;2022-10-31T08:46:50;98166.81;;;2.03;77.47
42671;BME280;28283;55.426;37.756;2022-10-31T08:51:51;98167.00;;;2.02;76.41
42671;BME280;28283;55.426;37.756;2022-10-31T08:56:55;98208.75;;;2.00;77.63
42671;BME280;28283;55.426;37.756;2022-10-31T09:01:56;98235.69;;;1.72;78.50
42671;BME280;28283;55.426;37.756;2022-10-31T09:06:56;98239.84;;;1.75;79.38
42671;BME280;28283;55.426;37.756;2022-10-31T09:11:57;98239.22;;;1.64;80.10
42671;BME280;28283;55.426;37.756;2022-10-31T09:16:59;98248.34;;;1.62;80.72
42671;BME280;28283;55.426;37.756;2022-10-31T09:21:59;98235.69;;;1.80;79.14
42671;BME280;28283;55.426;37.756;2022-10-31T09:27:00;98218.25;;;1.86;78.39
42671;BME280;28283;55.426;37.756;2022-10-31T09:32:01;98224.44;;;1.78;79.50
42671;BME280;28283;55.426;37.756;2022-10-31T09:37:01;98255.44;;;2.09;74.69
42671;BME280;28283;55.426;37.756;2022-10-31T09:52:30;98257.19;;;1.85;72.04
42671;BME280;28283;55.426;37.756;2022-10-31T09:57:36;98298.47;;;2.19;70.79
42671;BME280;28283;55.426;37.756;2022-10-31T10:02:42;98315.09;;;2.36;70.11
42671;BME280;28283;55.426;37.756;2022-10-31T10:08:13;98295.16;;;2.17;71.37
42671;BME280;28283;55.426;37.756;2022-10-31T10:23:37;98326.81;;;2.50;67.87
42671;BME280;28283;55.426;37.756;2022-10-31T10:28:45;98352.75;;;2.32;68.98
42671;BME280;28283;55.426;37.756;2022-10-31T10:33:59;98369.91;;;2.44;70.00
42671;BME280;28283;55.426;37.756;2022-10-31T10:39:14;98353.34;;;2.42;70.35
42671;BME280;28283;55.426;37.756;2022-10-31T10:44:17;98402.34;;;2.62;69.76
42671;BME280;28283;55.426;37.756;2022-10-31T10:49:18;98414.97;;;2.60;70.11
42671;BME280;28283;55.426;37.756;2022-10-31T10:54:34;98412.34;;;2.44;71.00
42671;BME280;28283;55.426;37.756;2022-10-31T10:59:37;98400.75;;;2.45;70.53
42671;BME280;28283;55.426;37.756;2022-10-31T11:04:39;98437.50;;;2.56;71.07
42671;BME280;28283;55.426;37.756;2022-10-31T11:09:40;98409.28;;;2.72;70.68
42671;BME280;28283;55.426;37.756;2022-10-31T11:14:54;98424.56;;;2.61;73.71
42671;BME280;28283;55.426;37.756;2022-10-31T11:25:25;98425.84;;;2.34;77.04
42671;BME280;28283;55.426;37.756;2022-10-31T11:30:27;98404.94;;;2.31;76.80
42671;BME280;28283;55.426;37.756;2022-10-31T11:35:29;98410.63;;;2.28;76.01
42671;BME280;28283;55.426;37.756;2022-10-31T11:40:29;98349.59;;;1.88;74.07
42671;BME280;28283;55.426;37.756;2022-10-31T11:45:33;98410.66;;;2.51;72.62
42671;BME280;28283;55.426;37.756;2022-10-31T11:50:37;98416.03;;;2.43;72.25
42671;BME280;28283;55.426;37.756;2022-10-31T11:55:39;98371.13;;;2.33;70.88
42671;BME280;28283;55.426;37.756;2022-10-31T12:00:49;98420.47;;;2.51;70.04
42671;BME280;28283;55.426;37.756;2022-10-31T12:06:00;98394.84;;;2.35;70.58
42671;BME280;28283;55.426;37.756;2022-10-31T12:17:10;98411.78;;;2.25;71.58
42671;BME280;28283;55.426;37.756;2022-10-31T12:22:19;98431.91;;;2.51;70.74
42671;BME280;28283;55.426;37.756;2022-10-31T12:44:01;98446.50;;;2.47;71.69
42671;BME280;28283;55.426;37.756;2022-10-31T13:00:16;98442.34;;;2.53;73.17
42671;BME280;28283;55.426;37.756;2022-10-31T13:15:33;98457.81;;;2.33;75.70
42671;BME280;28283;55.426;37.756;2022-10-31T13:20:42;98476.25;;;2.18;77.16
42671;BME280;28283;55.426;37.756;2022-10-31T13:25:55;98477.59;;;2.14;78.14
42671;BME280;28283;55.426;37.756;2022-10-31T13:30:56;98420.16;;;1.89;78.90
42671;BME280;28283;55.426;37.756;2022-10-31T13:46:38;98502.63;;;2.03;79.14
42671;BME280;28283;55.426;37.756;2022-10-31T13:51:39;98496.28;;;2.20;78.45
42671;BME280;28283;55.426;37.756;2022-10-31T13:56:40;98528.13;;;2.28;78.05
42671;BME280;28283;55.426;37.756;2022-10-31T14:01:51;98522.44;;;2.40;77.61
42671;BME280;28283;55.426;37.756;2022-10-31T14:07:04;98507.56;;;2.39;77.54
42671;BME280;28283;55.426;37.756;2022-10-31T14:12:09;98525.44;;;2.37;77.60
42671;BME280;28283;55.426;37.756;2022-10-31T14:17:19;98472.44;;;2.20;76.90
42671;BME280;28283;55.426;37.756;2022-10-31T14:22:21;98547.31;;;2.55;76.68
42671;BME280;28283;55.426;37.756;2022-10-31T14:32:29;98535.56;;;2.41;77.44
42671;BME280;28283;55.426;37.756;2022-10-31T14:43:18;98561.38;;;2.64;77.09
42671;BME280;28283;55.426;37.756;2022-10-31T14:54:05;98542.84;;;2.39;76.93
42671;BME280;28283;55.426;37.756;2022-10-31T14:59:11;98596.84;;;2.63;77.35
42671;BME280;28283;55.426;37.756;2022-10-31T15:04:16;98529.84;;;2.69;76.41
42671;BME280;28283;55.426;37.756;2022-10-31T15:09:29;98592.03;;;2.66;76.60
42671;BME280;28283;55.426;37.756;2022-10-31T15:14:31;98611.75;;;2.72;76.03
42671;BME280;28283;55.426;37.756;2022-10-31T15:19:33;98593.50;;;2.77;75.65
42671;BME280;28283;55.426;37.756;2022-10-31T15:24:38;98628.38;;;2.66;76.28
42671;BME280;28283;55.426;37.756;2022-10-31T15:29:51;98630.50;;;2.79;75.45
42671;BME280;28283;55.426;37.756;2022-10-31T15:34:53;98626.53;;;2.66;76.31
42671;BME280;28283;55.426;37.756;2022-10-31T15:39:55;98597.53;;;2.48;75.55
42671;BME280;28283;55.426;37.756;2022-10-31T15:55:26;98675.28;;;2.65;75.79
42671;BME280;28283;55.426;37.756;2022-10-31T16:00:32;98681.44;;;2.66;75.22
42671;BME280;28283;55.426;37.756;2022-10-31T16:05:54;98689.06;;;2.77;74.76
42671;BME280;28283;55.426;37.756;2022-10-31T16:10:58;98613.56;;;2.96;74.08
42671;BME280;28283;55.426;37.756;2022-10-31T16:16:02;98670.00;;;2.82;73.87
42671;BME280;28283;55.426;37.756;2022-10-31T16:21:03;98681.25;;;2.76;73.99
42671;BME280;28283;55.426;37.756;2022-10-31T16:26:08;98690.91;;;2.60;74.77
42671;BME280;28283;55.426;37.756;2022-10-31T16:31:14;98723.41;;;2.62;75.25
42671;BME280;28283;55.426;37.756;2022-10-31T16:41:28;98731.69;;;2.84;72.95
42671;BME280;28283;55.426;37.756;2022-10-31T16:46:29;98638.00;;;2.34;73.73
42671;BME280;28283;55.426;37.756;2022-10-31T16:51:30;98715.41;;;2.71;73.64
42671;BME280;28283;55.426;37.756;2022-10-31T16:56:32;98742.47;;;2.74;73.75
42671;BME280;28283;55.426;37.756;2022-10-31T17:01:34;98746.13;;;2.57;73.73
42671;BME280;28283;55.426;37.756;2022-10-31T17:06:35;98735.31;;;2.58;73.58
42671;BME280;28283;55.426;37.756;2022-10-31T17:11:36;98749.44;;;2.75;73.40
42671;BME280;28283;55.426;37.756;2022-10-31T17:16:39;98749.91;;;2.71;73.05
42671;BME280;28283;55.426;37.756;2022-10-31T17:21:41;98743.44;;;2.32;73.91
42671;BME280;28283;55.426;37.756;2022-10-31T17:26:41;98767.50;;;2.63;73.93
42671;BME280;28283;55.426;37.756;2022-10-31T17:31:42;98750.41;;;2.41;74.29
42671;BME280;28283;55.426;37.756;2022-10-31T17:36:49;98761.19;;;2.56;74.85
42671;BME280;28283;55.426;37.756;2022-10-31T17:41:51;98787.41;;;2.59;73.47
42671;BME280;28283;55.426;37.756;2022-10-31T17:46:53;98729.16;;;2.33;73.81
42671;BME280;28283;55.426;37.756;2022-10-31T17:51:53;98712.22;;;2.01;74.38
42671;BME280;28283;55.426;37.756;2022-10-31T17:56:54;98783.41;;;2.47;74.13
42671;BME280;28283;55.426;37.756;2022-10-31T18:01:56;98808.31;;;2.62;74.14
42671;BME280;28283;55.426;37.756;2022-10-31T18:06:58;98794.00;;;2.47;74.53
42671;BME280;28283;55.426;37.756;2022-10-31T18:11:59;98827.19;;;2.59;73.94
42671;BME280;28283;55.426;37.756;2022-10-31T18:17:00;98811.75;;;2.46;74.38
42671;BME280;28283;55.426;37.756;2022-10-31T18:22:01;98820.53;;;2.47;74.01
42671;BME280;28283;55.426;37.756;2022-10-31T18:27:01;98815.25;;;2.55;73.92
42671;BME280;28283;55.426;37.756;2022-10-31T18:32:02;98829.09;;;2.24;75.24
42671;BME280;28283;55.426;37.756;2022-10-31T18:37:03;98838.50;;;2.10;75.31
42671;BME280;28283;55.426;37.756;2022-10-31T18:42:04;98841.88;;;2.29;75.72
42671;BME280;28283;55.426;37.756;2022-10-31T18:47:05;98865.94;;;2.44;75.60
42671;BME280;28283;55.426;37.756;2022-10-31T18:52:05;98865.47;;;2.48;75.32
42671;BME280;28283;55.426;37.756;2022-10-31T18:57:06;98842.88;;;2.28;75.71
42671;BME280;28283;55.426;37.756;2022-10-31T19:02:08;98870.41;;;2.35;76.10
42671;BME280;28283;55.426;37.756;2022-10-31T19:07:10;98841.50;;;2.16;75.18
42671;BME280;28283;55.426;37.756;2022-10-31T19:12:11;98885.63;;;2.25;75.39
42671;BME280;28283;55.426;37.756;2022-10-31T19:17:12;98854.56;;;2.09;75.50
42671;BME280;28283;55.426;37.756;2022-10-31T19:22:12;98870.09;;;2.04;76.08
42671;BME280;28283;55.426;37.756;2022-10-31T19:27:13;98904.63;;;2.12;76.47
42671;BME280;28283;55.426;37.756;2022-10-31T19:32:14;98886.09;;;2.20;76.13
42671;BME280;28283;55.426;37.756;2022-10-31T19:37:15;98878.34;;;2.01;76.02
42671;BME280;28283;55.426;37.756;2022-10-31T19:42:15;98854.25;;;1.86;76.20
42671;BME280;28283;55.426;37.756;2022-10-31T19:47:16;98889.84;;;2.09;76.57
42671;BME280;28283;55.426;37.756;2022-10-31T19:52:28;98866.84;;;2.10;75.79
42671;BME280;28283;55.426;37.756;2022-10-31T19:57:32;98925.75;;;1.96;76.38
42671;BME280;28283;55.426;37.756;2022-10-31T20:02:34;98879.72;;;1.79;76.08
42671;BME280;28283;55.426;37.756;2022-10-31T20:07:35;98892.09;;;1.70;76.86
42671;BME280;28283;55.426;37.756;2022-10-31T20:12:36;98945.06;;;2.14;76.13
42671;BME280;28283;55.426;37.756;2022-10-31T20:17:36;98944.84;;;2.07;76.04
42671;BME280;28283;55.426;37.756;2022-10-31T20:22:37;98907.56;;;2.09;75.12
42671;BME280;28283;55.426;37.756;2022-10-31T20:27:38;98894.59;;;1.71;75.04
42671;BME280;28283;55.426;37.756;2022-10-31T20:32:39;98950.63;;;2.03;74.97
42671;BME280;28283;55.426;37.756;2022-10-31T20:37:39;98928.59;;;1.76;75.27
42671;BME280;28283;55.426;37.756;2022-10-31T20:42:41;98944.63;;;2.01;75.30
42671;BME280;28283;55.426;37.756;2022-10-31T20:47:42;98936.91;;;1.81;74.75
42671;BME280;28283;55.426;37.756;2022-10-31T20:52:42;98985.28;;;1.83;74.64
42671;BME280;28283;55.426;37.756;2022-10-31T20:57:43;98950.84;;;1.83;74.65
42671;BME280;28283;55.426;37.756;2022-10-31T21:02:44;98994.47;;;1.97;74.62
42671;BME280;28283;55.426;37.756;2022-10-31T21:07:45;98932.00;;;1.50;75.41
42671;BME280;28283;55.426;37.756;2022-10-31T21:12:46;99003.88;;;1.91;74.51
42671;BME280;28283;55.426;37.756;2022-10-31T21:17:46;98980.53;;;1.51;75.19
42671;BME280;28283;55.426;37.756;2022-10-31T21:22:47;99004.00;;;1.64;75.55
42671;BME280;28283;55.426;37.756;2022-10-31T21:27:48;98989.59;;;1.66;74.86
42671;BME280;28283;55.426;37.756;2022-10-31T21:32:48;98981.81;;;1.65;74.62
42671;BME280;28283;55.426;37.756;2022-10-31T21:37:49;99007.75;;;1.79;74.17
42671;BME280;28283;55.426;37.756;2022-10-31T21:42:50;99030.16;;;1.49;75.92
42671;BME280;28283;55.426;37.756;2022-10-31T21:47:51;99039.25;;;1.46;75.61
42671;BME280;28283;55.426;37.756;2022-10-31T21:52:51;99040.31;;;1.53;74.97
42671;BME280;28283;55.426;37.756;2022-10-31T21:57:52;99027.31;;;1.42;75.36
42671;BME280;28283;55.426;37.756;2022-10-31T22:02:53;99034.63;;;1.30;75.61
42671;BME280;28283;55.426;37.756;2022-10-31T22:07:53;99022.44;;;1.20;75.69
42671;BME280;28283;55.426;37.756;2022-10-31T22:12:54;99052.47;;;1.28;76.26
42671;BME280;28283;55.426;37.756;2022-10-31T22:17:55;99054.91;;;1.40;75.17
42671;BME280;28283;55.426;37.756;2022-10-31T22:22:55;99085.81;;;1.21;76.86
42671;BME280;28283;55.426;37.756;2022-10-31T22:27:56;99040.50;;;1.06;76.26
42671;BME280;28283;55.426;37.756;2022-10-31T22:32:57;98998.44;;;0.75;76.88
42671;BME280;28283;55.426;37.756;2022-10-31T22:37:59;99108.75;;;1.30;76.55
42671;BME280;28283;55.426;37.756;2022-10-31T22:43:00;99119.88;;;1.62;74.93
42671;BME280;28283;55.426;37.756;2022-10-31T22:48:01;99042.00;;;1.09;75.91
42671;BME280;28283;55.426;37.756;2022-10-31T22:53:01;99111.69;;;1.27;76.16
42671;BME280;28283;55.426;37.756;2022-10-31T22:58:02;99073.28;;;0.95;76.54
42671;BME280;28283;55.426;37.756;2022-10-31T23:03:22;99110.72;;;1.28;76.74
42671;BME280;28283;55.426;37.756;2022-10-31T23:08:24;99121.16;;;1.02;77.02
42671;BME280;28283;55.426;37.756;2022-10-31T23:13:26;99082.75;;;1.26;75.88
42671;BME280;28283;55.426;37.756;2022-10-31T23:18:45;99116.09;;;1.19;75.87
42671;BME280;28283;55.426;37.756;2022-10-31T23:23:46;99048.25;;;0.80;75.89
42671;BME280;28283;55.426;37.756;2022-10-31T23:28:47;99082.69;;;1.36;74.22
42671;BME280;28283;55.426;37.756;2022-10-31T23:33:48;99047.56;;;1.06;73.91
42671;BME280;28283;55.426;37.756;2022-10-31T23:38:48;99147.69;;;1.20;74.21
42671;BME280;28283;55.426;37.756;2022-10-31T23:43:50;99115.78;;;1.22;74.71
42671;BME280;28283;55.426;37.756;2022-10-31T23:48:51;99072.28;;;0.97;74.76
42671;BME280;28283;55.426;37.756;2022-10-31T23:53:53;99111.00;;;0.98;75.43
42671;BME280;28283;55.426;37.756;2022-10-31T23:58:53;99123.53;;;1.33;74.34
